Time;durP1;ratioP1;P1;durP2;ratioP2;P2;SDS_P1;SDS_P2;PMS_P1;PMS_P2;Temp;Humidity;BMP_temperature;BMP_pressure;BME280_temperature;BME280_humidity;BME280_pressure;Samples;Min_cycle;Max_cycle;Signal;HPM_P1;HPM_P2
2022/07/23 00:00:54;;;;;;;1.55;1.00;;;19.70;90.20;;;;;;10585751;27;20019;-65
2022/07/23 00:05:55;;;;;;;1.33;1.00;;;19.70;89.90;;;;;;10582397;27;20976;-64
2022/07/23 00:10:55;;;;;;;1.15;1.02;;;19.70;90.00;;;;;;10587426;27;20023;-64
2022/07/23 00:15:56;;;;;;;3.00;1.17;;;19.70;90.00;;;;;;10584393;27;20072;-64
2022/07/23 00:20:57;;;;;;;1.10;1.00;;;19.70;90.00;;;;;;10584894;27;20028;-64
2022/07/23 00:25:58;;;;;;;1.40;0.90;;;19.70;90.00;;;;;;10584113;27;20148;-64
2022/07/23 00:30:58;;;;;;;1.92;0.90;;;19.60;90.00;;;;;;10581994;27;20016;-64
2022/07/23 00:35:59;;;;;;;2.28;0.93;;;19.60;90.00;;;;;;10589391;27;20027;-64
2022/07/23 00:41:00;;;;;;;1.50;1.00;;;19.60;90.00;;;;;;10583986;27;20023;-64
2022/07/23 00:46:00;;;;;;;1.30;0.85;;;19.50;89.90;;;;;;10589827;27;20042;-65
2022/07/23 00:51:01;;;;;;;1.33;0.82;;;19.50;90.00;;;;;;10581534;28;20076;-64
2022/07/23 00:56:02;;;;;;;1.02;0.88;;;19.50;89.90;;;;;;10579208;28;20094;-64
2022/07/23 01:01:03;;;;;;;1.45;0.98;;;19.50;89.90;;;;;;10585889;28;20080;-64
2022/07/23 01:06:04;;;;;;;1.70;1.20;;;19.50;90.00;;;;;;10589244;27;20038;-64
2022/07/23 01:11:05;;;;;;;1.20;1.00;;;19.40;89.90;;;;;;10600210;27;20031;-64
2022/07/23 01:16:06;;;;;;;2.20;1.08;;;19.40;89.90;;;;;;10599107;27;20074;-64
2022/07/23 01:21:08;;;;;;;1.88;1.05;;;19.40;90.00;;;;;;10587693;27;20122;-64
2022/07/23 01:26:09;;;;;;;2.65;1.10;;;19.40;89.90;;;;;;10584115;27;20067;-64
2022/07/23 01:31:10;;;;;;;1.20;1.00;;;19.40;89.90;;;;;;10585274;27;20070;-64
2022/07/23 01:36:11;;;;;;;1.00;0.90;;;19.30;89.90;;;;;;10586565;27;20027;-64
2022/07/23 01:41:11;;;;;;;1.67;0.85;;;19.30;89.90;;;;;;10594708;27;20015;-64
2022/07/23 01:46:12;;;;;;;2.70;1.15;;;19.30;89.90;;;;;;10589304;27;20123;-64
2022/07/23 01:51:13;;;;;;;2.10;1.17;;;19.30;89.90;;;;;;10587198;27;20015;-64
2022/07/23 01:56:15;;;;;;;1.40;0.98;;;19.30;89.90;;;;;;10590743;27;20485;-64
2022/07/23 02:01:15;;;;;;;1.33;0.90;;;19.20;89.80;;;;;;10591777;27;20092;-65
2022/07/23 02:06:16;;;;;;;0.82;0.82;;;19.20;89.70;;;;;;10579789;27;20497;-65
2022/07/23 02:11:16;;;;;;;0.88;0.82;;;19.20;89.70;;;;;;10588283;27;20299;-65
2022/07/23 02:16:17;;;;;;;2.10;0.93;;;19.20;89.70;;;;;;10593516;27;20505;-65
2022/07/23 02:21:18;;;;;;;2.17;0.90;;;19.20;89.70;;;;;;10589510;27;20020;-65
2022/07/23 02:26:19;;;;;;;1.30;1.00;;;19.10;89.60;;;;;;10587494;27;20040;-65
2022/07/23 02:31:20;;;;;;;1.67;1.05;;;19.10;89.70;;;;;;10592361;27;20084;-65
2022/07/23 02:36:21;;;;;;;3.15;0.98;;;19.10;89.60;;;;;;10597423;27;20039;-65
2022/07/23 02:41:22;;;;;;;1.30;0.80;;;19.10;89.70;;;;;;10591640;27;20031;-65
2022/07/23 02:46:22;;;;;;;1.83;0.95;;;19.10;89.70;;;;;;10594541;27;20042;-65
2022/07/23 02:51:23;;;;;;;2.10;1.00;;;19.00;89.60;;;;;;10591531;27;20068;-65
2022/07/23 02:56:24;;;;;;;1.67;0.95;;;19.00;89.60;;;;;;10588290;27;20068;-65
2022/07/23 03:01:24;;;;;;;1.00;0.90;;;19.00;89.60;;;;;;10590915;27;20127;-65
2022/07/23 03:06:25;;;;;;;1.92;0.93;;;19.00;89.60;;;;;;10596812;27;20028;-65
2022/07/23 03:11:26;;;;;;;1.10;1.00;;;19.00;89.60;;;;;;10592238;27;20126;-65
2022/07/23 03:16:27;;;;;;;2.50;1.00;;;18.90;89.50;;;;;;10599203;27;20119;-65
2022/07/23 03:21:27;;;;;;;1.30;0.98;;;18.90;89.50;;;;;;10590568;27;20019;-65
2022/07/23 03:26:28;;;;;;;1.00;0.90;;;18.90;89.50;;;;;;10581246;27;20051;-65
2022/07/23 03:31:31;;;;;;;1.05;0.95;;;18.90;89.50;;;;;;10584128;27;20023;-65
2022/07/23 03:36:31;;;;;;;1.98;1.15;;;18.80;89.40;;;;;;10579791;27;20035;-65
2022/07/23 03:41:32;;;;;;;1.02;0.80;;;18.80;89.50;;;;;;10586503;27;20076;-65
2022/07/23 03:46:33;;;;;;;2.08;1.30;;;18.80;89.40;;;;;;10587360;27;20079;-65
2022/07/23 03:51:34;;;;;;;1.05;0.93;;;18.80;89.40;;;;;;10588867;27;20023;-65
2022/07/23 03:56:35;;;;;;;1.63;0.90;;;18.80;89.40;;;;;;10590822;27;20034;-65
2022/07/23 04:01:36;;;;;;;0.93;0.70;;;18.80;89.40;;;;;;10589468;27;20037;-65
2022/07/23 04:06:37;;;;;;;0.70;0.68;;;18.70;89.30;;;;;;11100858;22;20067;-65
2022/07/23 04:11:37;;;;;;;1.15;0.90;;;18.70;89.30;;;;;;10464769;28;20072;-64
2022/07/23 04:47:40;;;;;;;0.65;0.60;;;18.40;89.00;;;;;;11098326;22;20051;-64
2022/07/23 04:52:41;;;;;;;1.33;0.60;;;18.60;89.00;;;;;;10487096;28;20355;-64
2022/07/23 04:57:41;;;;;;;0.77;0.70;;;18.60;89.10;;;;;;10511849;28;20027;-65
2022/07/23 05:02:43;;;;;;;0.60;0.60;;;18.60;89.10;;;;;;10514365;28;20379;-65
2022/07/23 05:07:44;;;;;;;1.00;0.65;;;18.60;89.10;;;;;;10500156;28;20325;-64
2022/07/23 05:12:44;;;;;;;0.70;0.70;;;18.60;89.00;;;;;;10512118;28;20032;-64
2022/07/23 05:17:45;;;;;;;1.40;0.90;;;18.60;89.10;;;;;;10513359;28;20424;-64
2022/07/23 05:22:46;;;;;;;1.23;0.57;;;18.60;89.10;;;;;;10507198;28;20032;-64
2022/07/23 05:27:47;;;;;;;3.55;0.82;;;18.60;89.00;;;;;;10494773;28;20037;-64
2022/07/23 05:32:47;;;;;;;1.70;0.60;;;18.60;89.00;;;;;;10520677;28;20077;-64
2022/07/23 05:37:48;;;;;;;1.77;0.60;;;18.60;89.10;;;;;;10512441;28;20346;-64
2022/07/23 05:42:49;;;;;;;1.00;0.57;;;18.60;89.00;;;;;;10513008;28;20051;-64
2022/07/23 05:47:50;;;;;;;0.68;0.55;;;18.60;89.00;;;;;;10513110;28;20059;-64
2022/07/23 05:52:51;;;;;;;0.70;0.60;;;18.60;89.00;;;;;;10512386;27;20031;-65
2022/07/23 05:57:51;;;;;;;1.23;0.60;;;18.60;89.00;;;;;;10513288;27;20579;-65
2022/07/23 06:02:52;;;;;;;1.38;0.60;;;18.60;89.00;;;;;;10517613;27;20036;-65
2022/07/23 06:07:56;;;;;;;1.25;0.60;;;18.60;89.00;;;;;;10523784;27;20502;-65
2022/07/23 06:12:56;;;;;;;0.90;0.77;;;18.60;89.00;;;;;;10499719;27;20129;-65
2022/07/23 06:38:38;;;;;;;1.92;0.80;;;18.70;88.90;;;;;;11949772;22;20526;-64
2022/07/23 06:43:39;;;;;;;0.70;0.70;;;18.70;89.00;;;;;;10477881;28;20505;-65
2022/07/23 06:48:40;;;;;;;2.95;0.90;;;18.70;88.90;;;;;;10475610;27;20144;-65
2022/07/23 06:53:41;;;;;;;0.77;0.60;;;18.70;88.90;;;;;;10468724;27;20323;-65
2022/07/23 06:58:41;;;;;;;0.60;0.60;;;18.80;88.80;;;;;;10471577;27;20071;-64
2022/07/23 07:03:42;;;;;;;0.85;0.70;;;18.70;88.70;;;;;;10470999;27;20063;-64
2022/07/23 07:08:43;;;;;;;1.50;0.77;;;18.80;88.80;;;;;;10459362;28;20047;-65
2022/07/23 07:13:44;;;;;;;4.03;0.90;;;18.80;88.80;;;;;;10466694;28;20101;-65
2022/07/23 07:18:45;;;;;;;0.90;0.60;;;18.80;88.70;;;;;;10473146;27;20036;-64
2022/07/23 07:23:46;;;;;;;2.35;1.08;;;18.80;88.60;;;;;;10474842;28;20109;-66
2022/07/23 07:28:46;;;;;;;0.73;0.52;;;18.90;88.60;;;;;;10473932;27;20040;-67
2022/07/23 07:33:47;;;;;;;0.73;0.68;;;18.90;88.60;;;;;;10468124;27;20477;-66
2022/07/23 07:38:51;;;;;;;0.80;0.70;;;18.90;88.50;;;;;;10482469;27;20071;-66
2022/07/23 07:43:52;;;;;;;3.00;1.00;;;18.90;88.40;;;;;;10481019;27;20506;-67
2022/07/23 07:48:52;;;;;;;0.88;0.68;;;19.00;88.40;;;;;;10470102;27;20119;-67
2022/07/23 07:53:53;;;;;;;0.60;0.60;;;19.00;88.30;;;;;;10483043;27;20032;-66
2022/07/23 07:58:54;;;;;;;1.40;0.80;;;19.00;88.10;;;;;;10469869;27;21036;-67
2022/07/23 08:03:54;;;;;;;0.90;0.60;;;19.10;88.10;;;;;;10486964;27;20480;-66
2022/07/23 08:08:55;;;;;;;1.10;0.80;;;19.10;88.00;;;;;;10486706;27;20451;-65
2022/07/23 08:13:56;;;;;;;0.70;0.60;;;19.20;88.00;;;;;;10485402;27;20047;-66
2022/07/23 08:18:57;;;;;;;0.73;0.60;;;19.20;87.90;;;;;;10489963;27;20459;-66
2022/07/23 08:23:57;;;;;;;0.60;0.60;;;19.20;87.90;;;;;;10479443;27;20039;-66
2022/07/23 08:28:58;;;;;;;1.15;0.70;;;19.30;87.90;;;;;;10477856;27;20652;-66
2022/07/23 08:34:02;;;;;;;0.65;0.65;;;19.30;87.70;;;;;;10478582;28;20692;-66
2022/07/23 08:39:03;;;;;;;1.48;0.68;;;19.30;87.70;;;;;;10465508;28;20048;-64
2022/07/23 08:44:07;;;;;;;1.10;0.55;;;19.30;87.60;;;;;;10466546;28;20043;-65
2022/07/23 08:49:08;;;;;;;1.25;0.60;;;19.40;87.80;;;;;;10467594;28;20878;-66
2022/07/23 08:54:09;;;;;;;3.40;1.00;;;19.40;87.70;;;;;;10467054;28;20020;-64
2022/07/23 08:59:13;;;;;;;1.17;0.80;;;19.50;88.00;;;;;;10464665;28;20054;-65
2022/07/23 09:04:14;;;;;;;1.95;0.90;;;19.30;87.40;;;;;;10467400;28;20047;-67
2022/07/23 09:09:19;;;;;;;1.35;0.70;;;19.40;87.00;;;;;;11468957;22;20055;-65
2022/07/23 09:14:43;;;;;;;2.25;0.70;;;19.20;87.30;;;;;;10503098;28;20027;-64
2022/07/23 09:19:47;;;;;;;2.17;0.63;;;19.10;87.10;;;;;;10507657;28;20182;-65
2022/07/23 09:25:07;;;;;;;0.82;0.60;;;20.10;86.90;;;;;;10510141;28;20241;-68
2022/07/23 09:30:08;;;;;;;1.48;0.85;;;19.00;84.10;;;;;;10506826;27;20058;-68
2022/07/23 09:35:09;;;;;;;1.48;0.70;;;19.20;85.60;;;;;;10514998;27;20028;-68
2022/07/23 09:40:13;;;;;;;0.73;0.70;;;19.40;84.80;;;;;;10509297;27;20145;-67
2022/07/23 09:45:13;;;;;;;0.93;0.80;;;19.40;85.20;;;;;;10509767;27;20054;-68
2022/07/23 09:50:15;;;;;;;1.92;0.88;;;19.30;85.40;;;;;;10523662;27;20047;-67
2022/07/23 10:28:04;;;;;;;1.00;0.90;;;20.00;83.60;;;;;;12141461;22;20170;-65
2022/07/23 11:24:54;;;;;;;2.38;1.23;;;20.40;82.90;;;;;;10393986;28;20298;-66
2022/07/23 11:40:18;;;;;;;2.55;0.90;;;20.30;83.00;;;;;;12194092;22;20311;-68
2022/07/23 11:45:18;;;;;;;1.83;1.20;;;20.80;82.80;;;;;;10476039;28;20039;-67
2022/07/23 11:50:23;;;;;;;1.05;1.00;;;21.00;82.40;;;;;;10496115;28;20343;-72
2022/07/23 11:55:24;;;;;;;2.13;1.30;;;21.20;82.10;;;;;;10470309;28;20139;-67
2022/07/23 12:00:28;;;;;;;1.45;1.20;;;21.40;81.70;;;;;;10490698;28;20031;-67
2022/07/23 12:05:33;;;;;;;2.30;1.27;;;21.60;81.40;;;;;;10509914;28;20047;-69
2022/07/23 12:10:33;;;;;;;1.98;1.33;;;21.70;81.20;;;;;;10496849;28;20027;-67
2022/07/23 12:15:39;;;;;;;1.70;1.20;;;21.70;80.60;;;;;;10483380;28;20142;-68
2022/07/23 12:20:42;;;;;;;2.72;1.30;;;21.80;81.30;;;;;;10493837;28;20961;-67
2022/07/23 12:25:45;;;;;;;1.85;1.35;;;21.90;81.30;;;;;;10483172;28;20095;-67
2022/07/23 12:30:53;;;;;;;1.85;1.45;;;22.10;80.90;;;;;;10467481;28;20090;-67
2022/07/23 12:35:57;;;;;;;1.60;1.30;;;22.20;80.50;;;;;;10458850;28;20576;-66
2022/07/23 12:40:59;;;;;;;2.47;1.40;;;22.30;80.80;;;;;;10480994;28;20047;-65
2022/07/23 12:46:07;;;;;;;1.25;1.02;;;22.50;81.00;;;;;;10485522;28;20667;-67
2022/07/23 12:51:19;;;;;;;1.35;1.05;;;22.10;80.90;;;;;;10484494;28;20030;-67
2022/07/23 12:56:31;;;;;;;1.52;1.10;;;22.40;81.50;;;;;;10487375;28;20451;-66
2022/07/23 13:01:35;;;;;;;2.22;1.10;;;21.80;81.80;;;;;;10490159;28;20012;-67
2022/07/23 13:06:42;;;;;;;3.45;1.13;;;21.80;82.00;;;;;;10477482;28;20124;-67
2022/07/23 13:11:46;;;;;;;1.48;1.20;;;21.80;82.00;;;;;;10489630;28;20032;-67
2022/07/23 13:16:50;;;;;;;1.65;1.20;;;22.20;81.60;;;;;;10489393;28;20443;-67
2022/07/23 13:21:51;;;;;;;1.75;1.02;;;22.60;81.00;;;;;;10493830;28;20035;-66
2022/07/23 13:26:52;;;;;;;1.20;1.05;;;22.80;80.10;;;;;;10480956;28;20031;-68
2022/07/23 13:31:52;;;;;;;1.98;1.00;;;23.00;79.80;;;;;;10489608;28;20028;-67
2022/07/23 13:36:53;;;;;;;2.17;0.93;;;23.30;79.50;;;;;;10492820;28;20036;-67
2022/07/23 13:41:54;;;;;;;1.52;1.15;;;23.50;78.50;;;;;;10498099;28;20470;-67
2022/07/23 13:46:54;;;;;;;1.83;1.20;;;23.70;78.00;;;;;;10498186;28;20547;-67
2022/07/23 13:51:57;;;;;;;2.70;1.25;;;23.70;78.00;;;;;;10478453;28;20370;-69
2022/07/23 13:56:57;;;;;;;1.35;1.08;;;23.50;78.00;;;;;;10497040;28;20052;-69
2022/07/23 14:01:58;;;;;;;1.75;1.00;;;23.80;78.10;;;;;;10460924;28;20636;-68
2022/07/23 14:07:00;;;;;;;1.70;1.20;;;24.00;77.80;;;;;;10480521;28;20095;-69
2022/07/23 14:17:11;;;;;;;2.65;1.30;;;24.00;77.40;;;;;;12942154;22;20251;-69
2022/07/23 14:22:12;;;;;;;1.95;1.50;;;24.00;77.50;;;;;;10522635;27;20036;-67
2022/07/23 14:27:12;;;;;;;1.50;1.20;;;24.00;77.20;;;;;;10525976;27;20110;-67
2022/07/23 14:32:13;;;;;;;2.25;1.42;;;23.90;77.60;;;;;;10512609;27;20574;-67
2022/07/23 14:37:14;;;;;;;1.90;1.35;;;23.70;78.10;;;;;;10516561;27;20122;-66
2022/07/23 14:42:15;;;;;;;1.33;1.20;;;23.90;77.90;;;;;;10525525;27;20235;-68
2022/07/23 14:47:16;;;;;;;1.65;0.95;;;24.20;77.60;;;;;;10530123;27;20044;-69
2022/07/23 14:52:17;;;;;;;1.48;1.23;;;24.10;76.30;;;;;;10524600;27;20030;-67
2022/07/23 14:57:17;;;;;;;2.13;1.40;;;24.40;76.20;;;;;;10520928;27;20490;-67
2022/07/23 15:23:58;;;;;;;1.95;1.30;;;24.00;77.30;;;;;;12817693;22;20024;-66
2022/07/23 15:28:59;;;;;;;1.73;1.45;;;24.20;76.70;;;;;;10363270;28;20090;-67
2022/07/23 15:34:00;;;;;;;1.30;1.20;;;23.90;77.40;;;;;;10365656;28;20061;-68
2022/07/23 15:39:00;;;;;;;2.03;1.25;;;23.70;78.00;;;;;;10368815;28;20040;-67
2022/07/23 15:44:02;;;;;;;2.50;1.50;;;23.50;78.40;;;;;;10367048;28;20174;-68
2022/07/23 15:49:03;;;;;;;3.10;1.25;;;23.30;78.90;;;;;;10369015;28;20468;-68
2022/07/23 15:54:03;;;;;;;2.17;1.40;;;23.40;78.90;;;;;;10367751;28;20138;-68
2022/07/23 15:59:04;;;;;;;2.40;1.30;;;23.50;78.30;;;;;;10368766;28;20248;-68
2022/07/23 16:04:05;;;;;;;2.17;1.38;;;23.50;77.90;;;;;;10367337;28;20140;-68
2022/07/23 16:09:06;;;;;;;2.33;1.50;;;23.40;78.30;;;;;;10365227;28;20033;-69
2022/07/23 16:14:07;;;;;;;3.03;1.05;;;23.30;78.30;;;;;;10368907;28;20037;-68
2022/07/23 16:19:08;;;;;;;4.45;1.40;;;23.10;78.60;;;;;;10354880;28;20044;-69
2022/07/23 16:24:09;;;;;;;2.42;1.05;;;23.00;78.70;;;;;;10373225;28;20135;-69
2022/07/23 16:29:12;;;;;;;1.98;1.50;;;22.90;79.40;;;;;;10373681;28;20308;-68
2022/07/23 16:34:13;;;;;;;2.00;1.30;;;22.80;79.60;;;;;;10366446;28;20036;-68
2022/07/23 16:39:14;;;;;;;2.85;1.50;;;22.80;79.60;;;;;;10368692;28;20071;-67
2022/07/23 16:44:15;;;;;;;2.05;1.40;;;22.70;79.50;;;;;;10371815;28;20922;-69
2022/07/23 16:49:15;;;;;;;1.48;1.35;;;22.70;79.40;;;;;;10352003;28;20029;-69
2022/07/23 16:54:16;;;;;;;1.75;1.50;;;22.60;79.90;;;;;;10368099;28;20051;-68
2022/07/23 16:59:17;;;;;;;2.55;1.60;;;22.60;80.40;;;;;;10346823;28;20029;-67
2022/07/23 17:04:18;;;;;;;3.25;1.35;;;22.60;80.30;;;;;;10369056;28;20044;-68
2022/07/23 17:09:19;;;;;;;2.90;1.63;;;22.60;80.40;;;;;;10367096;28;20563;-76
2022/07/23 17:14:20;;;;;;;2.85;1.30;;;22.60;80.40;;;;;;10349066;28;20029;-78
2022/07/23 17:19:21;;;;;;;1.30;1.20;;;22.60;81.00;;;;;;10370449;28;20029;-67
2022/07/23 17:24:21;;;;;;;3.72;1.88;;;22.60;80.30;;;;;;10363471;28;20045;-79
2022/07/23 17:29:22;;;;;;;1.88;1.33;;;22.60;80.20;;;;;;10362921;28;20235;-67
2022/07/23 17:34:23;;;;;;;1.55;1.25;;;22.60;80.00;;;;;;10348185;28;20033;-66
2022/07/23 17:39:24;;;;;;;3.20;1.42;;;22.60;79.90;;;;;;10365470;28;20045;-66
2022/07/23 17:44:25;;;;;;;1.73;1.42;;;22.60;80.20;;;;;;10359049;28;20521;-66
2022/07/23 17:49:25;;;;;;;2.10;1.75;;;22.60;80.60;;;;;;10364362;28;20049;-72
2022/07/23 17:54:26;;;;;;;2.75;1.90;;;22.60;80.70;;;;;;10370142;28;20028;-66
2022/07/23 17:59:27;;;;;;;3.00;1.70;;;22.50;81.00;;;;;;10365940;28;20033;-67
2022/07/23 18:04:28;;;;;;;2.08;1.80;;;22.40;81.30;;;;;;10365397;28;20045;-66
2022/07/23 18:09:28;;;;;;;2.15;1.50;;;22.40;81.40;;;;;;10347223;28;20063;-66
2022/07/23 18:14:29;;;;;;;2.25;1.60;;;22.20;81.20;;;;;;10376590;28;20148;-66
2022/07/23 18:19:30;;;;;;;1.70;1.60;;;22.20;81.20;;;;;;10348578;28;20612;-65
2022/07/23 18:24:31;;;;;;;1.67;1.50;;;22.10;81.40;;;;;;10350007;28;20156;-66
2022/07/23 18:29:32;;;;;;;1.88;1.50;;;22.10;81.80;;;;;;10371725;28;20433;-68
2022/07/23 18:34:33;;;;;;;5.40;1.98;;;22.10;81.80;;;;;;10371391;28;20491;-66
2022/07/23 19:46:48;;;;;;;3.25;1.60;;;21.40;86.20;;;;;;12102840;22;20635;-68
2022/07/23 19:51:49;;;;;;;2.38;1.70;;;21.60;86.10;;;;;;10513219;27;20031;-68
2022/07/23 19:56:49;;;;;;;4.70;1.80;;;21.70;86.00;;;;;;10508988;27;20039;-68
2022/07/23 20:01:50;;;;;;;2.83;1.73;;;21.70;85.90;;;;;;10498165;27;20146;-68
2022/07/23 20:06:51;;;;;;;2.90;1.70;;;21.80;85.90;;;;;;10508072;27;20092;-68
2022/07/23 20:11:51;;;;;;;2.90;1.83;;;21.80;85.90;;;;;;10502201;27;20147;-67
2022/07/23 20:16:52;;;;;;;2.97;1.85;;;21.80;85.80;;;;;;10562249;27;20035;-67
2022/07/23 20:21:53;;;;;;;1.83;1.55;;;21.80;85.80;;;;;;10585002;27;20075;-67
2022/07/23 20:26:54;;;;;;;3.25;2.30;;;21.80;85.90;;;;;;10578163;27;20044;-67
2022/07/23 20:31:55;;;;;;;2.47;2.10;;;21.80;85.90;;;;;;10577837;27;20007;-68
2022/07/23 20:36:56;;;;;;;2.05;1.50;;;21.80;85.90;;;;;;10579034;27;20548;-68
2022/07/23 20:41:56;;;;;;;3.28;1.75;;;21.80;85.90;;;;;;10584410;27;20031;-68
2022/07/23 20:46:57;;;;;;;2.05;1.52;;;21.80;86.00;;;;;;10585226;27;20047;-68
2022/07/23 20:51:58;;;;;;;2.13;1.52;;;21.70;86.00;;;;;;10586610;27;20031;-68
2022/07/23 20:56:58;;;;;;;1.98;1.55;;;21.70;86.70;;;;;;10580477;28;20043;-67
2022/07/23 21:01:59;;;;;;;2.40;1.63;;;21.70;86.10;;;;;;10586834;28;20027;-68
2022/07/23 21:07:00;;;;;;;2.83;1.70;;;21.70;86.20;;;;;;10583305;28;20131;-67
2022/07/23 21:12:01;;;;;;;2.83;1.80;;;21.70;86.30;;;;;;10577532;28;20035;-67
2022/07/23 21:17:01;;;;;;;1.83;1.45;;;21.60;86.30;;;;;;10581941;28;20020;-66
2022/07/23 21:22:02;;;;;;;2.83;1.60;;;21.60;86.30;;;;;;10580537;27;20490;-66
2022/07/23 21:27:03;;;;;;;2.35;1.63;;;21.60;86.40;;;;;;10591413;27;20035;-66
2022/07/23 21:32:05;;;;;;;2.20;1.63;;;21.60;86.50;;;;;;10585409;27;21067;-66
2022/07/23 21:37:05;;;;;;;3.00;1.67;;;21.60;86.50;;;;;;10587100;27;20027;-66
2022/07/23 21:42:07;;;;;;;2.13;1.80;;;21.50;86.60;;;;;;10597704;27;20020;-66
2022/07/23 21:47:08;;;;;;;2.55;1.80;;;21.50;86.70;;;;;;10585278;27;20055;-66
2022/07/23 21:52:08;;;;;;;2.33;1.70;;;21.50;86.70;;;;;;10586267;27;20031;-66
2022/07/23 21:57:09;;;;;;;1.58;1.48;;;21.50;86.70;;;;;;10590571;27;20050;-66
2022/07/23 22:02:10;;;;;;;3.15;1.90;;;21.40;86.70;;;;;;10594311;27;20168;-66
2022/07/23 22:07:13;;;;;;;2.13;1.80;;;21.40;86.80;;;;;;10590152;27;20156;-66
2022/07/23 22:12:14;;;;;;;3.55;1.60;;;21.40;86.80;;;;;;10589346;27;20027;-66
2022/07/23 22:17:15;;;;;;;3.35;1.98;;;21.40;86.90;;;;;;10583337;27;20036;-66
2022/07/23 22:22:15;;;;;;;3.20;1.85;;;21.40;86.90;;;;;;10589892;27;20014;-65
2022/07/23 22:27:16;;;;;;;2.80;1.75;;;21.30;86.90;;;;;;10582773;27;20031;-66
2022/07/23 22:32:17;;;;;;;1.80;1.60;;;21.30;86.90;;;;;;10584637;27;20024;-66
2022/07/23 22:37:18;;;;;;;2.22;1.90;;;21.30;87.00;;;;;;10579860;27;20035;-66
2022/07/23 22:42:18;;;;;;;2.25;1.70;;;21.30;87.00;;;;;;10592635;27;20091;-66
2022/07/23 22:47:19;;;;;;;2.35;1.73;;;21.20;87.00;;;;;;10595591;27;20075;-66
2022/07/23 22:52:20;;;;;;;1.60;1.48;;;21.20;87.10;;;;;;10600506;27;20056;-66
2022/07/23 22:57:22;;;;;;;2.17;1.90;;;21.20;87.10;;;;;;10599512;27;20031;-66
2022/07/23 23:02:22;;;;;;;2.15;1.95;;;21.20;87.10;;;;;;10600653;27;20015;-65
2022/07/23 23:07:23;;;;;;;2.63;1.90;;;21.20;87.10;;;;;;10588556;27;20040;-66
2022/07/23 23:12:24;;;;;;;3.05;1.90;;;21.10;87.00;;;;;;10584245;27;20026;-66
2022/07/23 23:17:24;;;;;;;2.33;1.80;;;21.10;87.00;;;;;;10591876;27;20163;-66
2022/07/23 23:22:25;;;;;;;2.80;2.28;;;21.10;87.10;;;;;;10592358;27;20019;-66
2022/07/23 23:27:26;;;;;;;2.15;1.95;;;21.10;87.10;;;;;;10580424;27;20505;-65
2022/07/23 23:32:26;;;;;;;2.85;1.92;;;21.00;87.00;;;;;;10584755;27;20461;-65
2022/07/23 23:37:27;;;;;;;3.15;2.15;;;21.00;87.00;;;;;;10590455;27;20026;-66
2022/07/23 23:42:28;;;;;;;2.95;2.25;;;21.00;87.00;;;;;;10598766;27;20098;-65
2022/07/23 23:47:28;;;;;;;4.53;2.40;;;21.00;87.00;;;;;;10581865;27;20062;-66
2022/07/23 23:52:29;;;;;;;2.50;2.13;;;21.00;87.00;;;;;;10584641;27;20047;-66
2022/07/23 23:57:30;;;;;;;3.25;2.10;;;21.00;87.00;;;;;;10584162;27;20035;-66
